Time;durP1;ratioP1;P1;durP2;ratioP2;P2;SDS_P1;SDS_P2;PMS_P1;PMS_P2;Temp;Humidity;BMP_temperature;BMP_pressure;BME280_temperature;BME280_humidity;BME280_pressure;Samples;Min_cycle;Max_cycle;Signal;HPM_P1;HPM_P2
2023/07/26 00:00:17;;;;;;;30.63;6.15;;;;;;;26.80;48.38;99852.41;4863428;28;20051;-80
2023/07/26 00:02:53;;;;;;;27.58;5.95;;;;;;;26.74;47.34;99853.44;4884867;28;20426;-82
2023/07/26 00:05:27;;;;;;;31.25;5.53;;;;;;;26.62;47.36;99808.16;4878802;28;20053;-82
2023/07/26 00:08:06;;;;;;;25.08;5.35;;;;;;;26.84;48.31;99832.53;4913439;28;20559;-81
2023/07/26 00:10:45;;;;;;;29.23;6.55;;;;;;;26.85;46.50;99823.28;4917422;28;20046;-82
2023/07/26 00:13:13;;;;;;;21.98;5.78;;;;;;;26.88;47.90;99860.06;4917041;28;20046;-80
2023/07/26 00:15:44;;;;;;;30.10;6.40;;;;;;;26.67;47.94;99866.44;4891253;28;20497;-81
2023/07/26 00:18:17;;;;;;;28.98;6.05;;;;;;;26.57;48.21;99887.06;4890912;28;20134;-80
2023/07/26 00:20:49;;;;;;;24.15;6.10;;;;;;;26.63;48.92;99877.88;4898730;28;20046;-79
2023/07/26 00:23:23;;;;;;;39.42;6.20;;;;;;;26.55;47.30;99889.22;4900840;28;20407;-82
2023/07/26 00:25:50;;;;;;;28.75;6.60;;;;;;;26.55;47.27;99905.53;4891551;28;20374;-81
2023/07/26 00:28:21;;;;;;;20.65;5.05;;;;;;;26.35;48.53;99878.13;4908273;28;20144;-82
2023/07/26 00:30:53;;;;;;;24.55;6.32;;;;;;;26.28;47.62;99912.88;4904841;28;20134;-79
2023/07/26 00:33:28;;;;;;;19.33;5.53;;;;;;;26.40;49.51;99902.66;4886353;28;20043;-79
2023/07/26 00:35:55;;;;;;;22.75;6.85;;;;;;;26.63;47.85;99918.69;4932676;28;20108;-80
2023/07/26 00:38:25;;;;;;;20.90;6.18;;;;;;;26.25;48.91;99900.63;4948656;28;20046;-81
2023/07/26 00:40:53;;;;;;;25.45;5.38;;;;;;;26.30;50.09;99924.34;4958881;28;20047;-79
2023/07/26 00:43:20;;;;;;;21.30;5.47;;;;;;;25.73;50.37;99844.84;4933845;28;20379;-78
2023/07/26 00:45:46;;;;;;;33.85;7.10;;;;;;;26.15;48.81;99919.56;4900755;28;20058;-80
2023/07/26 00:48:15;;;;;;;18.77;6.68;;;;;;;25.87;49.73;99901.56;4933444;28;20108;-77
2023/07/26 00:50:45;;;;;;;18.35;4.60;;;;;;;25.94;51.16;99883.97;4969366;28;20513;-79
2023/07/26 00:53:13;;;;;;;16.92;5.38;;;;;;;25.79;50.46;99881.88;4948273;28;20038;-78
2023/07/26 00:55:42;;;;;;;24.13;7.00;;;;;;;26.09;49.88;99875.16;4946979;28;20046;-80
2023/07/26 00:58:12;;;;;;;20.02;5.93;;;;;;;26.44;50.37;99947.34;4950115;28;20101;-80
2023/07/26 01:00:43;;;;;;;12.32;4.57;;;;;;;26.53;50.71;99931.34;4947829;28;20410;-80
2023/07/26 01:03:09;;;;;;;16.70;5.40;;;;;;;26.40;50.49;99957.09;4933407;28;20047;-79
2023/07/26 01:06:13;;;;;;;12.23;4.93;;;;;;;26.21;50.97;99934.84;4947070;28;20407;-81
2023/07/26 01:08:48;;;;;;;;;;;;;;;26.57;51.28;99957.81;4984097;28;20045;-81
2023/07/26 01:11:36;;;;;;;20.45;6.03;;;;;;;26.83;50.88;99949.91;4940515;28;20386;-80
2023/07/26 01:14:25;;;;;;;20.30;5.05;;;;;;;27.59;48.82;99956.97;4925353;28;20173;-79
2023/07/26 01:16:52;;;;;;;10.68;5.07;;;;;;;27.77;48.35;99944.75;4955392;28;20046;-77
2023/07/26 01:19:19;;;;;;;17.73;5.45;;;;;;;28.01;47.90;99975.16;4945909;28;20336;-78
2023/07/26 01:21:50;;;;;;;19.40;5.65;;;;;;;27.98;47.78;99959.34;4925697;28;20054;-82
2023/07/26 01:24:19;;;;;;;14.00;5.32;;;;;;;27.94;48.32;99963.69;4946968;28;20056;-79
2023/07/26 01:26:45;;;;;;;16.75;5.15;;;;;;;27.87;48.40;99992.03;4934197;28;20093;-81
2023/07/26 01:29:12;;;;;;;24.25;6.47;;;;;;;27.45;50.09;100022.88;4927704;28;20211;-81
2023/07/26 01:31:39;;;;;;;24.13;7.75;;;;;;;26.89;52.45;100025.09;4926024;28;20124;-80
2023/07/26 01:34:07;;;;;;;28.13;8.68;;;;;;;26.43;56.57;100081.75;4930296;28;20054;-79
2023/07/26 01:36:35;;;;;;;26.38;7.00;;;;;;;26.54;54.88;100022.84;4927133;28;20241;-81
2023/07/26 01:39:09;;;;;;;34.03;9.27;;;;;;;27.12;53.35;99987.72;4941400;28;20058;-85
2023/07/26 01:41:40;;;;;;;21.88;6.72;;;;;;;26.32;57.03;99966.53;4905978;28;20442;-84
2023/07/26 01:44:07;;;;;;;30.52;7.85;;;;;;;25.80;60.42;99975.97;4909242;28;20153;-82
2023/07/26 01:46:33;;;;;;;24.60;7.57;;;;;;;25.64;61.34;99990.44;4945680;28;20141;-81
2023/07/26 01:49:00;;;;;;;21.25;7.95;;;;;;;25.23;62.41;99981.69;4950271;28;20050;-80
2023/07/26 01:51:27;;;;;;;24.80;7.68;;;;;;;25.31;59.85;99945.94;4932937;28;20322;-81
2023/07/26 01:53:54;;;;;;;25.83;6.30;;;;;;;26.37;56.44;99961.16;4936137;28;20369;-81
2023/07/26 01:56:27;;;;;;;19.48;6.22;;;;;;;26.79;55.24;99960.47;4921839;28;20229;-84
2023/07/26 01:58:57;;;;;;;21.33;6.82;;;;;;;27.29;54.41;99988.41;4946359;28;20053;-81
2023/07/26 02:01:24;;;;;;;18.33;5.95;;;;;;;26.86;54.79;99949.38;4935510;28;20234;-83
2023/07/26 02:03:56;;;;;;;20.92;6.82;;;;;;;26.64;58.65;99993.00;4941201;28;20058;-84
2023/07/26 02:06:28;;;;;;;25.23;7.53;;;;;;;26.52;58.39;99993.13;4953349;28;20107;-84
2023/07/26 02:09:01;;;;;;;24.05;7.53;;;;;;;26.03;59.99;100000.47;4945146;28;20309;-83
2023/07/26 02:11:28;;;;;;;16.60;6.22;;;;;;;25.94;59.82;100013.69;4942444;28;20158;-84
2023/07/26 02:13:56;;;;;;;20.17;6.88;;;;;;;26.43;57.79;100011.00;4934602;28;20494;-80
2023/07/26 02:16:22;;;;;;;16.02;6.20;;;;;;;26.62;57.53;100020.47;4921078;28;20058;-82
2023/07/26 02:18:49;;;;;;;16.55;5.78;;;;;;;26.89;56.69;100035.16;4924579;28;20054;-85
2023/07/26 02:21:16;;;;;;;24.65;7.43;;;;;;;26.83;56.60;100020.69;4957873;28;20662;-80
2023/07/26 02:23:43;;;;;;;16.33;6.40;;;;;;;27.62;53.77;100016.41;4940291;28;20180;-84
2023/07/26 02:26:12;;;;;;;26.60;7.50;;;;;;;27.55;55.27;100021.28;4910371;28;20058;-83
2023/07/26 02:28:39;;;;;;;14.40;6.72;;;;;;;26.73;58.60;100036.94;4928390;28;20325;-83
2023/07/26 02:31:05;;;;;;;13.98;6.45;;;;;;;26.16;58.92;100030.00;4919379;28;20559;-80
2023/07/26 02:33:33;;;;;;;18.27;6.50;;;;;;;26.33;58.14;100029.94;4917937;28;20231;-82
2023/07/26 02:36:00;;;;;;;23.45;7.43;;;;;;;26.30;59.70;100054.94;4916748;28;20532;-80
2023/07/26 02:38:27;;;;;;;21.33;9.80;;;;;;;25.91;59.97;100054.97;4937240;28;20145;-81
2023/07/26 02:40:54;;;;;;;25.00;7.20;;;;;;;25.13;61.15;100024.94;4918727;28;20049;-83
2023/07/26 02:43:21;;;;;;;15.70;8.02;;;;;;;24.62;63.97;100045.75;4914101;28;20065;-79
2023/07/26 02:46:10;;;;;;;21.88;7.68;;;;;;;24.15;67.04;100038.56;4924165;28;20064;-82
2023/07/26 02:48:45;;;;;;;27.60;8.35;;;;;;;23.74;68.86;100007.03;4927275;28;20740;-81
2023/07/26 02:51:17;;;;;;;20.83;7.75;;;;;;;23.77;68.79;100039.09;4936854;28;20060;-79
2023/07/26 02:53:44;;;;;;;20.42;8.65;;;;;;;23.72;69.50;100026.25;4909315;28;20414;-81
2023/07/26 02:56:15;;;;;;;22.67;8.48;;;;;;;23.53;70.43;100038.25;4918687;28;20053;-81
2023/07/26 02:58:47;;;;;;;24.45;8.60;;;;;;;23.25;71.14;100016.22;4906161;28;20219;-81
2023/07/26 03:01:24;;;;;;;19.48;8.05;;;;;;;22.82;72.50;99982.09;4921206;28;20105;-81
2023/07/26 03:03:51;;;;;;;16.17;8.18;;;;;;;22.98;73.04;100040.16;4900464;28;20299;-81
2023/07/26 03:06:22;;;;;;;20.55;8.32;;;;;;;22.75;73.68;100029.28;4932860;28;20042;-81
2023/07/26 03:08:52;;;;;;;19.73;9.00;;;;;;;22.77;74.63;100044.22;4934919;28;20262;-80
2023/07/26 03:11:19;;;;;;;18.98;7.45;;;;;;;22.70;74.89;100035.38;4931933;28;20652;-80
2023/07/26 03:13:50;;;;;;;24.27;8.88;;;;;;;22.54;75.20;100000.84;4883899;28;20055;-81
2023/07/26 03:16:19;;;;;;;31.75;8.60;;;;;;;22.79;75.60;100027.72;4897005;28;20179;-79
2023/07/26 03:18:46;;;;;;;23.95;8.73;;;;;;;22.92;75.26;100035.66;4896792;28;20341;-81
2023/07/26 03:21:13;;;;;;;17.70;7.75;;;;;;;23.19;73.53;100044.22;4907335;28;20690;-80
2023/07/26 03:23:45;;;;;;;19.38;8.55;;;;;;;23.19;73.45;100049.63;4900245;28;20169;-81
2023/07/26 03:26:14;;;;;;;20.98;8.52;;;;;;;23.14;73.82;100046.00;4930199;28;20663;-80
2023/07/26 03:28:47;;;;;;;19.35;8.07;;;;;;;23.10;74.10;100047.50;4897997;28;20662;-81
2023/07/26 03:31:17;;;;;;;19.15;7.32;;;;;;;22.90;74.77;100045.06;4913486;28;20530;-80
2023/07/26 03:33:44;;;;;;;24.70;8.85;;;;;;;22.80;75.42;100046.44;4899143;28;20050;-81
2023/07/26 03:36:11;;;;;;;19.55;8.77;;;;;;;22.87;75.50;100067.19;4916571;28;20061;-81
2023/07/26 03:38:37;;;;;;;23.90;9.60;;;;;;;22.65;75.75;100048.75;4919925;28;20613;-81
2023/07/26 03:41:04;;;;;;;28.98;8.80;;;;;;;22.48;76.90;100034.22;4910393;28;20281;-82
2023/07/26 03:43:31;;;;;;;25.10;8.55;;;;;;;22.23;77.07;100002.69;4914016;28;20824;-81
2023/07/26 03:46:00;;;;;;;19.55;7.50;;;;;;;22.66;76.91;100072.03;4910749;28;20112;-81
2023/07/26 03:48:27;;;;;;;21.50;9.15;;;;;;;22.66;76.79;100082.88;4912124;28;20216;-81
2023/07/26 03:50:54;;;;;;;26.17;8.95;;;;;;;22.63;77.22;100077.09;4888852;29;20190;-80
2023/07/26 03:53:21;;;;;;;20.63;8.40;;;;;;;22.70;77.03;100084.06;4901994;29;20562;-81
2023/07/26 03:55:48;;;;;;;24.17;8.68;;;;;;;22.68;76.94;100094.28;4896254;29;20384;-79
2023/07/26 03:58:21;;;;;;;19.80;7.47;;;;;;;22.61;77.38;100071.91;4895583;28;20051;-81
2023/07/26 04:00:55;;;;;;;21.45;8.40;;;;;;;22.81;77.12;100102.22;4906967;28;20057;-82
2023/07/26 04:03:24;;;;;;;23.05;8.15;;;;;;;22.50;75.20;100034.81;4922224;28;20060;-80
2023/07/26 04:05:51;;;;;;;30.27;8.45;;;;;;;23.04;74.21;100096.09;4913470;28;20066;-79
2023/07/26 04:08:17;;;;;;;17.55;8.45;;;;;;;22.88;73.82;100074.25;4932187;28;21003;-79
2023/07/26 04:10:44;;;;;;;21.27;7.65;;;;;;;23.05;74.27;100121.28;4933383;28;20050;-80
2023/07/26 04:13:11;;;;;;;19.83;8.70;;;;;;;22.86;74.86;100103.41;4916109;28;20058;-79
2023/07/26 04:15:38;;;;;;;21.60;7.20;;;;;;;22.88;75.46;100133.78;4915557;28;20243;-80
2023/07/26 04:18:06;;;;;;;22.58;8.23;;;;;;;22.71;76.01;100120.88;4922972;28;20054;-78
2023/07/26 04:20:33;;;;;;;18.75;8.60;;;;;;;22.79;76.33;100163.03;4922214;28;20050;-80
2023/07/26 04:23:03;;;;;;;20.55;8.85;;;;;;;22.46;76.52;100093.94;4913864;28;20630;-81
2023/07/26 04:25:30;;;;;;;22.38;8.30;;;;;;;22.84;75.74;100152.34;4922383;28;20062;-80
2023/07/26 04:27:57;;;;;;;25.95;8.52;;;;;;;22.89;74.58;100167.91;4931002;28;20112;-80
2023/07/26 04:30:23;;;;;;;22.10;8.77;;;;;;;22.70;74.22;100143.59;4937054;28;20486;-79
2023/07/26 04:32:56;;;;;;;19.05;8.68;;;;;;;22.81;73.67;100126.56;4943283;28;20050;-80
2023/07/26 04:35:29;;;;;;;20.85;9.35;;;;;;;22.86;73.47;100149.41;4931982;28;20180;-84
2023/07/26 04:37:55;;;;;;;19.95;8.38;;;;;;;22.96;73.73;100168.63;4929981;28;20641;-79
2023/07/26 04:40:26;;;;;;;26.40;9.05;;;;;;;22.79;73.89;100166.59;4922641;28;20042;-80
2023/07/26 04:42:53;;;;;;;18.30;9.98;;;;;;;22.72;74.51;100181.22;4903302;28;20062;-79
2023/07/26 04:45:20;;;;;;;22.10;9.80;;;;;;;22.77;74.53;100179.50;4909270;28;20396;-80
2023/07/26 04:47:47;;;;;;;20.48;10.13;;;;;;;22.66;75.22;100180.25;4913167;28;20165;-81
2023/07/26 04:50:13;;;;;;;25.23;10.50;;;;;;;22.57;75.30;100163.53;4931691;28;20410;-78
2023/07/26 04:52:40;;;;;;;21.65;11.20;;;;;;;22.52;75.31;100152.53;4915999;28;20526;-78
2023/07/26 04:55:07;;;;;;;19.15;10.05;;;;;;;22.67;75.57;100157.56;4937826;28;20240;-80
2023/07/26 04:57:38;;;;;;;19.83;10.35;;;;;;;22.69;75.61;100179.78;4939180;28;20039;-81
2023/07/26 05:00:07;;;;;;;27.67;12.45;;;;;;;22.82;76.02;100190.47;4943218;28;20046;-82
2023/07/26 05:02:35;;;;;;;28.88;11.20;;;;;;;23.18;73.54;100185.25;4945945;28;20057;-81
2023/07/26 05:05:02;;;;;;;29.13;11.38;;;;;;;23.10;73.11;100175.56;4952807;28;20046;-80
2023/07/26 05:07:29;;;;;;;24.45;8.90;;;;;;;22.82;73.36;100136.34;4972724;28;20467;-80
2023/07/26 05:09:55;;;;;;;29.65;11.57;;;;;;;23.09;73.05;100201.00;4948839;28;20240;-80
2023/07/26 05:12:22;;;;;;;31.55;12.05;;;;;;;22.76;72.96;100182.44;4933264;28;20224;-79
2023/07/26 05:14:49;;;;;;;14.82;7.72;;;;;;;22.75;73.91;100203.25;4929326;28;20502;-78
2023/07/26 05:17:17;;;;;;;27.60;12.18;;;;;;;22.78;73.89;100208.22;4937193;28;20109;-79
2023/07/26 05:19:43;;;;;;;25.48;9.05;;;;;;;22.73;73.51;100202.66;4964177;28;20124;-79
2023/07/26 05:22:10;;;;;;;23.35;10.73;;;;;;;22.71;73.91;100177.69;4968953;28;20054;-80
2023/07/26 05:24:38;;;;;;;34.92;14.00;;;;;;;22.90;72.81;100218.28;4946667;28;20517;-79
2023/07/26 05:27:05;;;;;;;28.27;12.43;;;;;;;22.82;72.34;100160.72;4951339;28;20437;-80
2023/07/26 05:29:32;;;;;;;17.90;7.63;;;;;;;23.37;72.22;100237.47;4944179;28;20138;-78
2023/07/26 05:31:58;;;;;;;26.65;12.70;;;;;;;23.35;71.55;100215.22;4965053;28;20295;-78
2023/07/26 05:34:28;;;;;;;26.33;12.07;;;;;;;23.67;71.17;100251.84;4939299;28;20074;-80
2023/07/26 05:36:55;;;;;;;32.30;14.18;;;;;;;23.30;70.65;100209.66;4941746;28;20082;-79
2023/07/26 05:39:26;;;;;;;25.52;14.00;;;;;;;23.47;70.36;100213.38;4924007;28;20073;-81
2023/07/26 05:41:57;;;;;;;29.90;14.52;;;;;;;23.48;68.83;100225.06;4946394;28;20506;-78
2023/07/26 05:44:23;;;;;;;28.55;12.07;;;;;;;23.41;70.00;100246.81;4948908;28;20080;-81
2023/07/26 05:46:50;;;;;;;26.40;12.13;;;;;;;23.29;70.11;100213.44;4932171;28;20335;-82
2023/07/26 05:49:21;;;;;;;40.40;15.43;;;;;;;23.60;70.33;100277.41;4945954;28;20050;-81
2023/07/26 05:51:47;;;;;;;33.10;15.25;;;;;;;23.28;69.48;100222.59;4957332;28;20057;-81
2023/07/26 05:54:14;;;;;;;27.38;13.32;;;;;;;23.39;70.03;100287.66;4971590;28;20060;-79
2023/07/26 05:56:41;;;;;;;24.38;13.60;;;;;;;23.23;70.77;100269.34;4964793;28;20050;-81
2023/07/26 05:59:07;;;;;;;25.85;12.48;;;;;;;23.50;70.05;100280.66;4946594;28;20121;-80
2023/07/26 06:01:34;;;;;;;24.30;12.32;;;;;;;23.50;68.77;100267.09;4956681;28;20137;-80
2023/07/26 06:04:01;;;;;;;20.73;8.77;;;;;;;23.40;69.23;100253.25;4946906;28;20077;-79
2023/07/26 06:06:28;;;;;;;23.65;11.85;;;;;;;23.57;69.63;100289.50;4954551;28;20042;-79
2023/07/26 06:08:55;;;;;;;24.00;13.93;;;;;;;23.63;69.26;100283.16;4941074;28;20051;-80
2023/07/26 06:11:22;;;;;;;20.35;10.00;;;;;;;23.59;69.60;100287.41;4931089;28;20249;-82
2023/07/26 06:13:48;;;;;;;27.15;13.65;;;;;;;23.00;70.55;100202.34;4933606;28;20268;-80
2023/07/26 06:16:19;;;;;;;31.90;12.07;;;;;;;23.63;70.22;100288.59;4939772;28;20101;-81
2023/07/26 06:18:49;;;;;;;27.25;12.60;;;;;;;23.77;69.18;100285.72;4943591;28;20347;-81
2023/07/26 06:21:17;;;;;;;35.45;13.88;;;;;;;23.87;68.23;100277.84;4948021;28;20499;-82
2023/07/26 06:23:45;;;;;;;22.05;10.65;;;;;;;23.93;66.91;100306.72;4941587;28;20101;-81
2023/07/26 06:26:12;;;;;;;25.52;13.70;;;;;;;23.67;67.71;100265.41;4941409;28;20047;-79
2023/07/26 06:28:39;;;;;;;27.75;12.23;;;;;;;23.99;65.46;100311.25;4941898;28;20087;-80
2023/07/26 06:31:12;;;;;;;21.70;11.55;;;;;;;24.02;66.38;100313.47;4929846;28;20053;-81
2023/07/26 06:33:38;;;;;;;25.00;11.80;;;;;;;24.04;64.67;100316.78;4947625;28;20054;-79
2023/07/26 06:36:06;;;;;;;28.05;12.15;;;;;;;24.02;64.96;100313.47;4962094;28;20129;-78
2023/07/26 06:38:39;;;;;;;28.55;11.48;;;;;;;23.90;64.63;100296.34;4934876;28;20096;-82
2023/07/26 06:41:08;;;;;;;22.65;10.75;;;;;;;23.98;63.04;100316.88;4920701;28;20051;-80
2023/07/26 06:43:35;;;;;;;18.63;9.50;;;;;;;24.17;63.54;100326.59;4908073;28;20050;-79
2023/07/26 06:46:06;;;;;;;20.30;11.35;;;;;;;23.71;61.06;100270.34;4940721;28;20045;-81
2023/07/26 06:48:33;;;;;;;19.13;8.70;;;;;;;24.33;63.18;100346.81;4942978;28;20559;-81
2023/07/26 06:51:07;;;;;;;20.52;9.82;;;;;;;24.28;62.87;100309.53;4913184;28;20256;-81
2023/07/26 06:53:35;;;;;;;20.75;10.60;;;;;;;24.60;62.23;100332.81;4913539;28;20058;-80
2023/07/26 06:56:02;;;;;;;23.15;11.15;;;;;;;24.64;61.36;100336.72;4944382;28;20228;-78
2023/07/26 06:58:29;;;;;;;19.15;10.15;;;;;;;24.81;62.34;100334.94;4936281;28;20110;-77
2023/07/26 07:01:04;;;;;;;24.55;12.93;;;;;;;24.76;60.75;100323.13;4939969;28;20050;-80
2023/07/26 07:03:31;;;;;;;16.20;8.63;;;;;;;24.73;61.77;100314.44;4939511;28;20066;-81
2023/07/26 07:05:59;;;;;;;19.88;11.90;;;;;;;24.91;61.91;100354.19;4937000;28;20047;-80
2023/07/26 07:08:26;;;;;;;22.05;8.98;;;;;;;24.85;61.36;100363.25;4947649;28;20394;-80
2023/07/26 07:10:53;;;;;;;17.58;9.00;;;;;;;24.66;60.81;100362.56;4952236;28;20397;-80
2023/07/26 07:13:19;;;;;;;21.92;11.32;;;;;;;24.51;60.39;100327.72;4927785;29;20047;-81
2023/07/26 07:15:46;;;;;;;19.67;10.02;;;;;;;24.66;61.19;100354.44;4944816;28;20134;-77
2023/07/26 07:18:14;;;;;;;20.65;9.68;;;;;;;24.84;60.58;100364.34;4962359;28;20057;-78
2023/07/26 07:20:42;;;;;;;15.93;9.50;;;;;;;24.82;58.95;100349.34;4963166;28;20049;-80
2023/07/26 07:23:09;;;;;;;14.70;8.38;;;;;;;24.80;60.29;100365.84;4971872;28;20422;-78
2023/07/26 07:25:39;;;;;;;16.05;7.35;;;;;;;24.93;59.83;100340.38;4963271;28;20085;-78
2023/07/26 07:28:09;;;;;;;11.80;6.38;;;;;;;25.12;58.43;100368.19;4961524;28;20439;-80
2023/07/26 07:30:36;;;;;;;13.25;6.32;;;;;;;25.02;57.31;100349.78;4967060;28;20042;-77
2023/07/26 07:33:03;;;;;;;9.00;6.03;;;;;;;25.05;57.88;100365.63;4965369;28;20267;-78
2023/07/26 07:35:33;;;;;;;11.80;6.90;;;;;;;25.02;57.12;100381.56;4965223;28;20119;-78
2023/07/26 07:37:59;;;;;;;13.15;7.07;;;;;;;24.98;58.14;100370.34;4963321;28;20080;-80
2023/07/26 07:40:32;;;;;;;11.02;5.78;;;;;;;25.16;57.38;100385.69;4953211;28;20082;-80
2023/07/26 07:43:01;;;;;;;12.60;7.22;;;;;;;25.03;54.80;100364.22;4937055;28;20102;-77
2023/07/26 07:45:28;;;;;;;11.73;6.22;;;;;;;25.05;54.69;100384.63;4932899;28;20117;-77
2023/07/26 07:47:55;;;;;;;13.95;7.07;;;;;;;24.95;55.94;100385.22;4961583;28;20827;-80
2023/07/26 07:50:22;;;;;;;12.57;6.82;;;;;;;24.75;56.27;100349.44;4953334;28;20061;-78
2023/07/26 07:52:49;;;;;;;16.27;6.80;;;;;;;24.79;54.74;100361.50;4967514;28;20046;-80
2023/07/26 07:55:16;;;;;;;15.05;7.50;;;;;;;24.78;55.07;100376.13;4967551;28;20058;-79
2023/07/26 07:57:46;;;;;;;10.95;6.57;;;;;;;24.95;56.31;100393.38;4954874;28;20102;-79
2023/07/26 08:00:13;;;;;;;10.77;5.32;;;;;;;25.19;56.72;100387.94;4944583;28;20410;-79
2023/07/26 08:02:43;;;;;;;18.25;7.72;;;;;;;24.92;54.58;100355.00;4933058;28;20055;-80
2023/07/26 08:05:12;;;;;;;13.02;7.05;;;;;;;24.75;55.80;100354.88;4942872;28;20522;-78
2023/07/26 08:07:39;;;;;;;13.02;6.93;;;;;;;25.28;56.12;100412.88;4970438;28;20043;-79
2023/07/26 08:10:06;;;;;;;12.82;6.90;;;;;;;25.47;54.76;100403.50;4960469;28;20106;-79
2023/07/26 08:12:36;;;;;;;12.82;7.32;;;;;;;25.47;53.88;100410.84;4945298;28;20057;-78
2023/07/26 08:15:04;;;;;;;11.18;5.90;;;;;;;25.51;55.04;100406.53;4945389;28;20479;-78
2023/07/26 08:17:31;;;;;;;10.30;5.68;;;;;;;25.45;54.64;100408.34;4956338;28;20488;-81
2023/07/26 08:19:59;;;;;;;12.45;6.32;;;;;;;25.60;54.84;100413.25;4931646;28;20574;-77
2023/07/26 08:22:25;;;;;;;11.05;5.97;;;;;;;25.63;54.71;100410.06;4931684;28;20082;-80
2023/07/26 08:24:53;;;;;;;11.15;5.25;;;;;;;25.63;53.76;100414.69;4913789;28;20281;-79
2023/07/26 08:27:20;;;;;;;16.63;6.47;;;;;;;25.72;52.67;100424.09;4937024;28;20134;-78
2023/07/26 08:29:47;;;;;;;15.23;6.15;;;;;;;25.54;53.24;100408.81;4938330;28;20090;-77
2023/07/26 08:32:16;;;;;;;10.73;6.65;;;;;;;25.69;53.30;100427.31;4921414;28;20047;-79
2023/07/26 08:34:43;;;;;;;11.38;5.78;;;;;;;25.99;53.82;100429.84;4960183;28;20129;-77
2023/07/26 08:37:10;;;;;;;12.70;5.13;;;;;;;26.08;53.62;100427.56;4971011;28;20112;-78
2023/07/26 08:39:37;;;;;;;13.68;5.88;;;;;;;26.07;51.81;100425.91;4964596;28;20051;-81
2023/07/26 08:42:04;;;;;;;9.45;4.93;;;;;;;26.17;52.99;100445.16;4925840;28;20047;-80
2023/07/26 08:44:33;;;;;;;9.25;5.22;;;;;;;26.18;53.14;100444.91;4946886;28;20078;-79
2023/07/26 08:47:03;;;;;;;7.75;4.78;;;;;;;26.06;52.56;100427.81;4943795;28;20050;-79
2023/07/26 08:49:31;;;;;;;9.17;5.97;;;;;;;26.01;51.09;100438.59;4948398;28;20065;-78
2023/07/26 08:52:02;;;;;;;13.25;5.40;;;;;;;26.05;51.10;100434.31;4941965;28;20330;-78
2023/07/26 08:54:31;;;;;;;10.77;4.75;;;;;;;25.94;50.62;100425.13;4944308;28;20051;-80
2023/07/26 08:57:01;;;;;;;13.65;6.35;;;;;;;26.14;51.19;100459.22;4948917;28;20047;-79
2023/07/26 08:59:29;;;;;;;10.80;5.87;;;;;;;26.23;51.47;100458.59;4948236;28;20522;-79
2023/07/26 09:01:57;;;;;;;9.25;5.47;;;;;;;25.70;51.28;100371.88;4929936;28;20309;-76
2023/07/26 09:04:33;;;;;;;15.65;6.68;;;;;;;25.94;50.41;100411.53;4958385;28;20538;-79
2023/07/26 09:07:02;;;;;;;11.68;5.63;;;;;;;26.10;51.28;100458.06;4953527;28;20050;-78
2023/07/26 09:09:31;;;;;;;14.63;5.60;;;;;;;26.20;51.82;100458.25;4964182;28;20054;-78
2023/07/26 09:12:00;;;;;;;11.30;7.18;;;;;;;25.99;51.06;100435.28;4950568;28;20040;-85
2023/07/26 09:14:28;;;;;;;15.70;7.07;;;;;;;26.31;51.84;100475.59;4987514;28;20108;-80
2023/07/26 09:17:14;;;;;;;18.90;7.28;;;;;;;26.17;50.92;100435.09;4988865;28;20046;-79
2023/07/26 09:19:41;;;;;;;9.80;4.72;;;;;;;26.60;51.54;100477.28;4957181;28;20051;-77
2023/07/26 09:22:08;;;;;;;11.27;7.22;;;;;;;26.09;50.67;100389.22;4961020;28;20052;-80
2023/07/26 09:24:41;;;;;;;11.40;7.63;;;;;;;26.67;49.73;100479.81;4968100;28;20477;-79
2023/07/26 09:27:12;;;;;;;16.10;8.60;;;;;;;26.54;49.67;100448.28;4975945;28;20125;-79
2023/07/26 09:29:54;;;;;;;11.93;7.20;;;;;;;26.63;49.57;100465.88;4959220;28;20083;-78
2023/07/26 09:32:29;;;;;;;23.35;7.82;;;;;;;26.70;49.33;100456.72;4965733;28;20309;-78
2023/07/26 09:35:04;;;;;;;13.77;6.90;;;;;;;26.22;50.29;100397.09;4962827;28;20161;-81
2023/07/26 09:37:33;;;;;;;13.18;6.20;;;;;;;27.16;49.87;100487.41;4991121;28;20057;-79
2023/07/26 09:40:01;;;;;;;13.95;7.85;;;;;;;26.66;48.64;100396.50;4961783;28;20379;-80
2023/07/26 09:42:47;;;;;;;11.27;6.03;;;;;;;27.30;49.73;100477.84;4940537;28;20073;-79
2023/07/26 09:45:19;;;;;;;8.15;5.22;;;;;;;26.42;49.87;100331.28;4977384;28;20050;-78
2023/07/26 09:47:53;;;;;;;16.90;7.97;;;;;;;27.41;48.47;100490.56;4977014;28;20713;-79
2023/07/26 09:50:31;;;;;;;11.32;6.57;;;;;;;27.31;49.27;100467.75;4992225;28;20054;-80
2023/07/26 09:53:03;;;;;;;12.20;4.97;;;;;;;27.80;48.93;100476.06;4984292;28;20424;-80
2023/07/26 09:55:33;;;;;;;7.53;5.07;;;;;;;27.83;48.50;100487.31;4989285;28;20049;-78
2023/07/26 09:58:01;;;;;;;8.65;4.45;;;;;;;28.21;48.20;100480.13;4985352;28;20516;-78
2023/07/26 10:00:29;;;;;;;10.20;5.50;;;;;;;28.03;46.29;100496.81;4957357;28;20509;-77
2023/07/26 10:03:03;;;;;;;14.02;4.65;;;;;;;27.99;46.41;100496.53;4961619;28;20068;-79
2023/07/26 10:05:36;;;;;;;9.65;4.55;;;;;;;28.15;46.78;100499.41;4946943;28;20386;-79
2023/07/26 10:08:03;;;;;;;8.02;4.53;;;;;;;28.11;43.91;100482.75;4954625;28;20560;-78
2023/07/26 10:10:31;;;;;;;9.63;4.35;;;;;;;28.24;45.36;100476.88;4966598;28;20069;-79
2023/07/26 10:13:00;;;;;;;5.40;3.67;;;;;;;28.37;43.58;100499.38;4951594;28;20050;-80
2023/07/26 10:15:31;;;;;;;7.78;4.03;;;;;;;28.60;45.18;100501.84;4919390;28;20090;-80
2023/07/26 10:18:02;;;;;;;7.43;3.25;;;;;;;28.51;42.58;100493.28;4980453;28;20456;-77
2023/07/26 10:20:33;;;;;;;5.43;3.70;;;;;;;28.28;43.25;100455.38;4959766;28;20097;-79
2023/07/26 10:23:04;;;;;;;8.10;3.65;;;;;;;28.80;44.79;100500.38;4951437;28;20305;-77
2023/07/26 10:25:33;;;;;;;6.57;3.45;;;;;;;28.90;44.38;100498.53;4947550;28;20058;-78
2023/07/26 10:28:01;;;;;;;8.25;4.53;;;;;;;28.92;42.52;100499.13;4974163;28;20084;-77
2023/07/26 10:30:29;;;;;;;5.32;3.40;;;;;;;29.04;44.52;100511.78;4995114;28;20081;-77
2023/07/26 10:32:59;;;;;;;6.53;3.45;;;;;;;29.17;44.35;100493.03;4964098;28;20054;-79
2023/07/26 10:35:33;;;;;;;8.75;3.42;;;;;;;28.40;40.50;100392.41;4990530;28;20049;-79
2023/07/26 10:38:05;;;;;;;8.70;3.83;;;;;;;28.86;40.62;100502.91;4959910;28;20050;-79
2023/07/26 10:40:38;;;;;;;5.85;3.63;;;;;;;28.90;42.61;100418.50;4954086;28;20047;-79
2023/07/26 10:43:20;;;;;;;5.35;3.75;;;;;;;29.12;42.39;100501.19;4950057;28;20385;-78
2023/07/26 10:45:51;;;;;;;6.82;3.67;;;;;;;28.52;41.68;100423.09;4932349;28;20058;-79
2023/07/26 10:48:36;;;;;;;7.93;3.90;;;;;;;28.93;40.13;100478.91;4939555;28;20104;-78
2023/07/26 10:51:22;;;;;;;8.57;3.75;;;;;;;29.08;42.26;100485.59;4940748;28;20054;-77
2023/07/26 10:53:50;;;;;;;12.80;3.60;;;;;;;28.95;41.06;100464.97;4942751;28;20589;-79
2023/07/26 10:56:34;;;;;;;6.05;3.47;;;;;;;29.51;41.85;100484.50;4948406;28;20062;-79
2023/07/26 10:59:08;;;;;;;5.53;3.72;;;;;;;29.61;41.54;100492.78;4940600;28;20146;-81
2023/07/26 11:01:41;;;;;;;4.63;2.95;;;;;;;29.05;42.46;100481.44;4931031;28;20346;-80
2023/07/26 11:04:20;;;;;;;4.82;3.20;;;;;;;28.60;42.08;100438.22;4936669;28;20049;-79
2023/07/26 11:06:56;;;;;;;7.70;3.67;;;;;;;28.82;42.53;100492.75;4942510;28;20068;-78
2023/07/26 11:09:35;;;;;;;7.10;3.63;;;;;;;28.68;42.77;100471.31;4940425;28;20054;-81
2023/07/26 11:12:17;;;;;;;8.63;3.83;;;;;;;28.52;43.20;100477.72;4930749;28;20058;-81
2023/07/26 11:14:48;;;;;;;6.45;4.40;;;;;;;28.13;44.23;100447.81;4906574;28;20054;-80
2023/07/26 11:17:41;;;;;;;4.15;3.08;;;;;;;28.07;43.62;100433.31;4939534;28;20492;-80
2023/07/26 11:20:10;;;;;;;5.93;3.85;;;;;;;28.38;40.79;100473.75;4916842;28;20186;-80
2023/07/26 11:22:38;;;;;;;7.03;3.80;;;;;;;28.80;40.81;100464.88;4927158;28;20400;-81
2023/07/26 11:25:08;;;;;;;7.38;3.42;;;;;;;28.97;40.15;100487.41;4908035;28;20051;-77
2023/07/26 11:27:36;;;;;;;6.07;3.25;;;;;;;29.35;40.74;100489.06;4919294;28;20596;-81
2023/07/26 11:30:03;;;;;;;11.50;3.67;;;;;;;29.57;41.45;100482.63;4941467;28;20063;-79